sensor_id;sensor_type;location;lat;lon;timestamp;pressure;altitude;pressure_sealevel;temperature
76541;BMP280;65385;55.772;37.658;2023-07-09T00:00:56;99502.00;;;18.51
76541;BMP280;65385;55.772;37.658;2023-07-09T00:01:57;99500.72;;;18.49
76541;BMP280;65385;55.772;37.658;2023-07-09T00:02:58;99503.38;;;18.49
76541;BMP280;65385;55.772;37.658;2023-07-09T00:03:59;99506.81;;;18.49
76541;BMP280;65385;55.772;37.658;2023-07-09T00:04:59;99494.66;;;18.48
76541;BMP280;65385;55.772;37.658;2023-07-09T00:06:00;99503.88;;;18.51
76541;BMP280;65385;55.772;37.658;2023-07-09T00:07:02;99500.44;;;18.50
76541;BMP280;65385;55.772;37.658;2023-07-09T00:08:03;99502.31;;;18.50
76541;BMP280;65385;55.772;37.658;2023-07-09T00:09:04;99502.31;;;18.50
76541;BMP280;65385;55.772;37.658;2023-07-09T00:10:17;99509.78;;;18.48
76541;BMP280;65385;55.772;37.658;2023-07-09T00:11:19;99503.25;;;18.45
76541;BMP280;65385;55.772;37.658;2023-07-09T00:12:20;99508.25;;;18.47
76541;BMP280;65385;55.772;37.658;2023-07-09T00:13:23;99501.38;;;18.46
76541;BMP280;65385;55.772;37.658;2023-07-09T00:14:24;99502.94;;;18.47
76541;BMP280;65385;55.772;37.658;2023-07-09T00:15:25;99504.03;;;18.46
76541;BMP280;65385;55.772;37.658;2023-07-09T00:16:27;99505.88;;;18.45
76541;BMP280;65385;55.772;37.658;2023-07-09T00:17:32;99511.97;;;18.46
76541;BMP280;65385;55.772;37.658;2023-07-09T00:18:34;99504.03;;;18.46
76541;BMP280;65385;55.772;37.658;2023-07-09T00:19:35;99502.00;;;18.43
76541;BMP280;65385;55.772;37.658;2023-07-09T00:20:35;99501.06;;;18.39
76541;BMP280;65385;55.772;37.658;2023-07-09T00:21:36;99492.84;;;18.40
76541;BMP280;65385;55.772;37.658;2023-07-09T00:22:37;99498.91;;;18.41
76541;BMP280;65385;55.772;37.658;2023-07-09T00:23:37;99499.53;;;18.38
76541;BMP280;65385;55.772;37.658;2023-07-09T00:24:48;99491.94;;;18.36
76541;BMP280;65385;55.772;37.658;2023-07-09T00:25:51;99490.66;;;18.34
76541;BMP280;65385;55.772;37.658;2023-07-09T00:26:52;99491.78;;;18.33
76541;BMP280;65385;55.772;37.658;2023-07-09T00:27:52;99494.44;;;18.33
76541;BMP280;65385;55.772;37.658;2023-07-09T00:28:53;99489.75;;;18.30
76541;BMP280;65385;55.772;37.658;2023-07-09T00:29:53;99494.72;;;18.31
76541;BMP280;65385;55.772;37.658;2023-07-09T00:30:54;99481.03;;;18.29
76541;BMP280;65385;55.772;37.658;2023-07-09T00:31:55;99483.22;;;18.27
76541;BMP280;65385;55.772;37.658;2023-07-09T00:32:56;99483.34;;;18.31
76541;BMP280;65385;55.772;37.658;2023-07-09T00:33:56;99478.25;;;18.26
76541;BMP280;65385;55.772;37.658;2023-07-09T00:35:00;99485.56;;;18.29
76541;BMP280;65385;55.772;37.658;2023-07-09T00:36:18;99483.69;;;18.29
76541;BMP280;65385;55.772;37.658;2023-07-09T00:37:21;99486.00;;;18.31
76541;BMP280;65385;55.772;37.658;2023-07-09T00:38:22;99484.47;;;18.30
76541;BMP280;65385;55.772;37.658;2023-07-09T00:39:23;99481.03;;;18.29
76541;BMP280;65385;55.772;37.658;2023-07-09T00:40:24;99475.75;;;18.29
76541;BMP280;65385;55.772;37.658;2023-07-09T00:41:26;99483.69;;;18.29
76541;BMP280;65385;55.772;37.658;2023-07-09T00:42:29;99477.16;;;18.27
76541;BMP280;65385;55.772;37.658;2023-07-09T00:43:34;99484.81;;;18.28
76541;BMP280;65385;55.772;37.658;2023-07-09T00:44:38;99478.25;;;18.26
76541;BMP280;65385;55.772;37.658;2023-07-09T00:45:44;99486.97;;;18.26
76541;BMP280;65385;55.772;37.658;2023-07-09T00:47:58;99480.88;;;18.26
76541;BMP280;65385;55.772;37.658;2023-07-09T00:49:08;99486.97;;;18.26
76541;BMP280;65385;55.772;37.658;2023-07-09T00:51:33;99468.63;;;18.21
76541;BMP280;65385;55.772;37.658;2023-07-09T00:52:49;99478.88;;;18.22
76541;BMP280;65385;55.772;37.658;2023-07-09T00:53:54;99477.34;;;18.21
76541;BMP280;65385;55.772;37.658;2023-07-09T00:54:56;99470.19;;;18.22
76541;BMP280;65385;55.772;37.658;2023-07-09T00:56:06;99468.28;;;18.22
76541;BMP280;65385;55.772;37.658;2023-07-09T00:57:13;99462.97;;;18.22
76541;BMP280;65385;55.772;37.658;2023-07-09T00:58:18;99460.97;;;18.19
76541;BMP280;65385;55.772;37.658;2023-07-09T00:59:22;99458.31;;;18.19
76541;BMP280;65385;55.772;37.658;2023-07-09T01:00:30;99452.56;;;18.17
76541;BMP280;65385;55.772;37.658;2023-07-09T01:01:37;99449.16;;;18.17
76541;BMP280;65385;55.772;37.658;2023-07-09T01:02:43;99456.19;;;18.13
76541;BMP280;65385;55.772;37.658;2023-07-09T01:03:45;99454.94;;;18.10
76541;BMP280;65385;55.772;37.658;2023-07-09T01:04:48;99453.38;;;18.09
76541;BMP280;65385;55.772;37.658;2023-07-09T01:05:49;99461.50;;;18.13
76541;BMP280;65385;55.772;37.658;2023-07-09T01:06:54;99451.19;;;18.11
76541;BMP280;65385;55.772;37.658;2023-07-09T01:07:57;99451.69;;;18.13
76541;BMP280;65385;55.772;37.658;2023-07-09T01:08:59;99454.94;;;18.10
76541;BMP280;65385;55.772;37.658;2023-07-09T01:10:01;99456.97;;;18.13
76541;BMP280;65385;55.772;37.658;2023-07-09T01:11:02;99456.97;;;18.13
76541;BMP280;65385;55.772;37.658;2023-07-09T01:12:07;99454.00;;;18.15
76541;BMP280;65385;55.772;37.658;2023-07-09T01:13:08;99451.78;;;18.17
76541;BMP280;65385;55.772;37.658;2023-07-09T01:14:11;99446.50;;;18.17
76541;BMP280;65385;55.772;37.658;2023-07-09T01:15:13;99456.47;;;18.20
76541;BMP280;65385;55.772;37.658;2023-07-09T01:16:16;99458.31;;;18.19
76541;BMP280;65385;55.772;37.658;2023-07-09T01:17:17;99451.94;;;18.20
76541;BMP280;65385;55.772;37.658;2023-07-09T01:18:18;99450.53;;;18.23
76541;BMP280;65385;55.772;37.658;2023-07-09T01:19:21;99457.25;;;18.20
76541;BMP280;65385;55.772;37.658;2023-07-09T01:20:26;99456.75;;;18.27
76541;BMP280;65385;55.772;37.658;2023-07-09T01:21:27;99460.19;;;18.28
76541;BMP280;65385;55.772;37.658;2023-07-09T01:22:28;99458.72;;;18.30
76541;BMP280;65385;55.772;37.658;2023-07-09T01:23:30;99454.69;;;18.33
76541;BMP280;65385;55.772;37.658;2023-07-09T01:24:59;99462.00;;;18.36
76541;BMP280;65385;55.772;37.658;2023-07-09T01:26:02;99456.72;;;18.36
76541;BMP280;65385;55.772;37.658;2023-07-09T01:27:03;99451.41;;;18.36
76541;BMP280;65385;55.772;37.658;2023-07-09T01:28:04;99455.63;;;18.37
76541;BMP280;65385;55.772;37.658;2023-07-09T01:29:05;99448.88;;;18.39
76541;BMP280;65385;55.772;37.658;2023-07-09T01:30:11;99446.56;;;18.38
76541;BMP280;65385;55.772;37.658;2023-07-09T01:31:13;99456.53;;;18.41
76541;BMP280;65385;55.772;37.658;2023-07-09T01:32:17;99448.09;;;18.39
76541;BMP280;65385;55.772;37.658;2023-07-09T01:33:21;99445.16;;;18.40
76541;BMP280;65385;55.772;37.658;2023-07-09T01:34:23;99452.78;;;18.42
76541;BMP280;65385;55.772;37.658;2023-07-09T01:35:25;99453.56;;;18.42
76541;BMP280;65385;55.772;37.658;2023-07-09T01:36:27;99450.91;;;18.42
76541;BMP280;65385;55.772;37.658;2023-07-09T01:37:29;99447.16;;;18.43
76541;BMP280;65385;55.772;37.658;2023-07-09T01:38:29;99449.03;;;18.43
76541;BMP280;65385;55.772;37.658;2023-07-09T01:39:31;99443.72;;;18.43
76541;BMP280;65385;55.772;37.658;2023-07-09T01:40:33;99447.94;;;18.44
76541;BMP280;65385;55.772;37.658;2023-07-09T01:41:34;99455.25;;;18.47
76541;BMP280;65385;55.772;37.658;2023-07-09T01:42:36;99461.28;;;18.47
76541;BMP280;65385;55.772;37.658;2023-07-09T01:43:41;99451.47;;;18.48
76541;BMP280;65385;55.772;37.658;2023-07-09T01:44:42;99452.25;;;18.48
76541;BMP280;65385;55.772;37.658;2023-07-09T01:45:44;99445.72;;;18.46
76541;BMP280;65385;55.772;37.658;2023-07-09T01:46:44;99441.84;;;18.43
76541;BMP280;65385;55.772;37.658;2023-07-09T01:47:46;99444.00;;;18.50
76541;BMP280;65385;55.772;37.658;2023-07-09T01:48:46;99447.44;;;18.50
76541;BMP280;65385;55.772;37.658;2023-07-09T01:49:47;99448.63;;;18.53
76541;BMP280;65385;55.772;37.658;2023-07-09T01:50:48;99445.94;;;18.61
76541;BMP280;65385;55.772;37.658;2023-07-09T01:51:51;99451.97;;;18.70
76541;BMP280;65385;55.772;37.658;2023-07-09T01:52:52;99451.00;;;18.75
76541;BMP280;65385;55.772;37.658;2023-07-09T01:53:53;99442.88;;;18.80
76541;BMP280;65385;55.772;37.658;2023-07-09T01:54:54;99443.00;;;18.84
76541;BMP280;65385;55.772;37.658;2023-07-09T01:55:55;99444.25;;;18.86
76541;BMP280;65385;55.772;37.658;2023-07-09T01:57:19;99444.81;;;18.92
76541;BMP280;65385;55.772;37.658;2023-07-09T01:58:23;99441.69;;;18.90
76541;BMP280;65385;55.772;37.658;2023-07-09T01:59:25;99437.16;;;18.90
76541;BMP280;65385;55.772;37.658;2023-07-09T02:00:27;99440.13;;;18.89
76541;BMP280;65385;55.772;37.658;2023-07-09T02:01:29;99449.34;;;18.91
76541;BMP280;65385;55.772;37.658;2023-07-09T02:02:30;99446.47;;;18.96
76541;BMP280;65385;55.772;37.658;2023-07-09T02:03:32;99440.91;;;19.10
76541;BMP280;65385;55.772;37.658;2023-07-09T02:04:33;99436.69;;;19.29
76541;BMP280;65385;55.772;37.658;2023-07-09T02:05:35;99449.06;;;19.58
76541;BMP280;65385;55.772;37.658;2023-07-09T02:06:36;99447.00;;;19.88
76541;BMP280;65385;55.772;37.658;2023-07-09T02:07:37;99445.00;;;20.21
76541;BMP280;65385;55.772;37.658;2023-07-09T02:08:38;99456.69;;;20.56
76541;BMP280;65385;55.772;37.658;2023-07-09T02:09:39;99441.91;;;20.83
76541;BMP280;65385;55.772;37.658;2023-07-09T02:10:39;99446.47;;;21.10
76541;BMP280;65385;55.772;37.658;2023-07-09T02:11:40;99440.16;;;21.31
76541;BMP280;65385;55.772;37.658;2023-07-09T02:12:40;99445.22;;;21.51
76541;BMP280;65385;55.772;37.658;2023-07-09T02:13:41;99442.69;;;21.70
76541;BMP280;65385;55.772;37.658;2023-07-09T02:14:43;99441.59;;;21.91
76541;BMP280;65385;55.772;37.658;2023-07-09T02:15:44;99439.28;;;22.05
76541;BMP280;65385;55.772;37.658;2023-07-09T02:16:46;99444.66;;;22.24
76541;BMP280;65385;55.772;37.658;2023-07-09T02:17:46;99442.81;;;22.43
76541;BMP280;65385;55.772;37.658;2023-07-09T02:18:47;99431.78;;;22.64
76541;BMP280;65385;55.772;37.658;2023-07-09T02:19:48;99434.94;;;22.89
76541;BMP280;65385;55.772;37.658;2023-07-09T02:20:48;99430.75;;;23.10
76541;BMP280;65385;55.772;37.658;2023-07-09T02:21:49;99435.34;;;23.33
76541;BMP280;65385;55.772;37.658;2023-07-09T02:22:50;99427.13;;;23.45
76541;BMP280;65385;55.772;37.658;2023-07-09T02:23:50;99433.47;;;23.59
76541;BMP280;65385;55.772;37.658;2023-07-09T02:24:52;99434.78;;;23.69
76541;BMP280;65385;55.772;37.658;2023-07-09T02:25:53;99427.34;;;23.81
76541;BMP280;65385;55.772;37.658;2023-07-09T02:26:55;99433.25;;;23.94
76541;BMP280;65385;55.772;37.658;2023-07-09T02:27:55;99431.47;;;24.05
76541;BMP280;65385;55.772;37.658;2023-07-09T02:28:56;99438.88;;;24.15
76541;BMP280;65385;55.772;37.658;2023-07-09T02:29:57;99433.19;;;24.20
76541;BMP280;65385;55.772;37.658;2023-07-09T02:30:58;99429.91;;;24.30
76541;BMP280;65385;55.772;37.658;2023-07-09T02:32:00;99432.25;;;24.35
76541;BMP280;65385;55.772;37.658;2023-07-09T02:33:01;99434.66;;;24.44
76541;BMP280;65385;55.772;37.658;2023-07-09T02:34:02;99432.44;;;24.49
76541;BMP280;65385;55.772;37.658;2023-07-09T02:35:03;99442.72;;;24.47
76541;BMP280;65385;55.772;37.658;2023-07-09T02:36:04;99428.44;;;24.33
76541;BMP280;65385;55.772;37.658;2023-07-09T02:37:05;99432.31;;;24.13
76541;BMP280;65385;55.772;37.658;2023-07-09T02:38:06;99435.38;;;23.85
76541;BMP280;65385;55.772;37.658;2023-07-09T02:39:06;99440.69;;;23.55
76541;BMP280;65385;55.772;37.658;2023-07-09T02:40:08;99435.28;;;23.29
76541;BMP280;65385;55.772;37.658;2023-07-09T02:41:09;99427.59;;;23.05
76541;BMP280;65385;55.772;37.658;2023-07-09T02:42:11;99430.72;;;22.88
76541;BMP280;65385;55.772;37.658;2023-07-09T02:43:12;99439.97;;;22.75
76541;BMP280;65385;55.772;37.658;2023-07-09T02:44:13;99441.72;;;22.67
76541;BMP280;65385;55.772;37.658;2023-07-09T02:45:14;99428.63;;;22.59
76541;BMP280;65385;55.772;37.658;2023-07-09T02:46:14;99431.97;;;22.56
76541;BMP280;65385;55.772;37.658;2023-07-09T02:47:15;99427.44;;;22.56
76541;BMP280;65385;55.772;37.658;2023-07-09T02:48:16;99437.16;;;22.48
76541;BMP280;65385;55.772;37.658;2023-07-09T02:49:17;99435.16;;;22.42
76541;BMP280;65385;55.772;37.658;2023-07-09T02:50:18;99429.03;;;22.41
76541;BMP280;65385;55.772;37.658;2023-07-09T02:51:19;99435.00;;;22.54
76541;BMP280;65385;55.772;37.658;2023-07-09T02:52:19;99435.22;;;22.65
76541;BMP280;65385;55.772;37.658;2023-07-09T02:53:21;99432.06;;;22.78
76541;BMP280;65385;55.772;37.658;2023-07-09T02:54:21;99434.66;;;22.94
76541;BMP280;65385;55.772;37.658;2023-07-09T02:55:22;99435.59;;;23.05
76541;BMP280;65385;55.772;37.658;2023-07-09T02:56:23;99435.50;;;23.21
76541;BMP280;65385;55.772;37.658;2023-07-09T02:57:24;99439.91;;;23.32
76541;BMP280;65385;55.772;37.658;2023-07-09T02:58:24;99438.59;;;23.45
76541;BMP280;65385;55.772;37.658;2023-07-09T02:59:25;99436.53;;;23.58
76541;BMP280;65385;55.772;37.658;2023-07-09T03:00:27;99436.00;;;23.75
76541;BMP280;65385;55.772;37.658;2023-07-09T03:01:29;99432.81;;;23.92
76541;BMP280;65385;55.772;37.658;2023-07-09T03:02:30;99432.69;;;24.11
76541;BMP280;65385;55.772;37.658;2023-07-09T03:03:31;99429.88;;;24.27
76541;BMP280;65385;55.772;37.658;2023-07-09T03:04:31;99433.94;;;24.47
76541;BMP280;65385;55.772;37.658;2023-07-09T03:05:33;99431.94;;;24.74
76541;BMP280;65385;55.772;37.658;2023-07-09T03:06:35;99433.34;;;25.01
76541;BMP280;65385;55.772;37.658;2023-07-09T03:07:36;99436.34;;;25.33
76541;BMP280;65385;55.772;37.658;2023-07-09T03:08:36;99440.75;;;25.62
76541;BMP280;65385;55.772;37.658;2023-07-09T03:09:37;99429.06;;;25.94
76541;BMP280;65385;55.772;37.658;2023-07-09T03:10:38;99434.56;;;26.30
76541;BMP280;65385;55.772;37.658;2023-07-09T03:11:39;99427.41;;;26.62
76541;BMP280;65385;55.772;37.658;2023-07-09T03:12:39;99432.03;;;26.97
76541;BMP280;65385;55.772;37.658;2023-07-09T03:13:40;99429.34;;;27.32
76541;BMP280;65385;55.772;37.658;2023-07-09T03:14:40;99427.03;;;27.52
76541;BMP280;65385;55.772;37.658;2023-07-09T03:15:41;99424.69;;;27.68
76541;BMP280;65385;55.772;37.658;2023-07-09T03:16:42;99419.25;;;27.82
76541;BMP280;65385;55.772;37.658;2023-07-09T03:17:42;99424.94;;;28.08
76541;BMP280;65385;55.772;37.658;2023-07-09T03:18:43;99426.03;;;28.14
76541;BMP280;65385;55.772;37.658;2023-07-09T03:19:43;99417.56;;;28.19
76541;BMP280;65385;55.772;37.658;2023-07-09T03:20:44;99422.06;;;28.40
76541;BMP280;65385;55.772;37.658;2023-07-09T03:21:45;99418.91;;;28.56
76541;BMP280;65385;55.772;37.658;2023-07-09T03:22:45;99422.75;;;28.58
76541;BMP280;65385;55.772;37.658;2023-07-09T03:23:46;99421.97;;;28.58
76541;BMP280;65385;55.772;37.658;2023-07-09T03:24:46;99418.91;;;28.56
76541;BMP280;65385;55.772;37.658;2023-07-09T03:25:47;99425.03;;;28.60
76541;BMP280;65385;55.772;37.658;2023-07-09T03:26:48;99412.75;;;28.55
76541;BMP280;65385;55.772;37.658;2023-07-09T03:27:48;99415.44;;;28.55
76541;BMP280;65385;55.772;37.658;2023-07-09T03:28:49;99417.38;;;28.51
76541;BMP280;65385;55.772;37.658;2023-07-09T03:29:50;99407.84;;;28.36
76541;BMP280;65385;55.772;37.658;2023-07-09T03:30:53;99417.16;;;28.25
76541;BMP280;65385;55.772;37.658;2023-07-09T03:31:54;99414.13;;;28.12
76541;BMP280;65385;55.772;37.658;2023-07-09T03:32:55;99416.53;;;27.89
76541;BMP280;65385;55.772;37.658;2023-07-09T03:33:55;99420.81;;;27.69
76541;BMP280;65385;55.772;37.658;2023-07-09T03:34:56;99413.22;;;27.42
76541;BMP280;65385;55.772;37.658;2023-07-09T03:35:57;99407.88;;;27.21
76541;BMP280;65385;55.772;37.658;2023-07-09T03:36:57;99404.03;;;26.98
76541;BMP280;65385;55.772;37.658;2023-07-09T03:37:58;99405.56;;;26.74
76541;BMP280;65385;55.772;37.658;2023-07-09T03:38:58;99406.66;;;26.45
76541;BMP280;65385;55.772;37.658;2023-07-09T03:39:59;99400.81;;;26.18
76541;BMP280;65385;55.772;37.658;2023-07-09T03:41:00;99412.63;;;26.00
76541;BMP280;65385;55.772;37.658;2023-07-09T03:42:01;99410.56;;;25.75
76541;BMP280;65385;55.772;37.658;2023-07-09T03:43:01;99413.56;;;25.60
76541;BMP280;65385;55.772;37.658;2023-07-09T03:44:02;99416.91;;;25.46
76541;BMP280;65385;55.772;37.658;2023-07-09T03:45:03;99427.97;;;25.41
76541;BMP280;65385;55.772;37.658;2023-07-09T03:46:06;99417.88;;;25.27
76541;BMP280;65385;55.772;37.658;2023-07-09T03:47:07;99425.44;;;25.15
76541;BMP280;65385;55.772;37.658;2023-07-09T03:48:07;99424.25;;;25.09
76541;BMP280;65385;55.772;37.658;2023-07-09T03:49:08;99428.41;;;25.06
76541;BMP280;65385;55.772;37.658;2023-07-09T03:50:09;99424.53;;;24.97
76541;BMP280;65385;55.772;37.658;2023-07-09T03:51:10;99420.59;;;24.87
76541;BMP280;65385;55.772;37.658;2023-07-09T03:52:11;99421.94;;;24.71
76541;BMP280;65385;55.772;37.658;2023-07-09T03:53:12;99431.88;;;24.67
76541;BMP280;65385;55.772;37.658;2023-07-09T03:54:13;99426.84;;;24.62
76541;BMP280;65385;55.772;37.658;2023-07-09T03:55:13;99422.56;;;24.57
76541;BMP280;65385;55.772;37.658;2023-07-09T03:56:14;99428.78;;;24.65
76541;BMP280;65385;55.772;37.658;2023-07-09T03:57:15;99431.19;;;24.77
76541;BMP280;65385;55.772;37.658;2023-07-09T03:58:15;99432.34;;;24.79
76541;BMP280;65385;55.772;37.658;2023-07-09T03:59:16;99427.72;;;24.73
76541;BMP280;65385;55.772;37.658;2023-07-09T04:00:17;99423.50;;;24.72
76541;BMP280;65385;55.772;37.658;2023-07-09T04:01:17;99421.19;;;24.70
76541;BMP280;65385;55.772;37.658;2023-07-09T04:02:18;99413.56;;;24.72
76541;BMP280;65385;55.772;37.658;2023-07-09T04:03:19;99417.53;;;24.85
76541;BMP280;65385;55.772;37.658;2023-07-09T04:04:20;99418.78;;;24.98
76541;BMP280;65385;55.772;37.658;2023-07-09T04:05:20;99406.38;;;25.20
76541;BMP280;65385;55.772;37.658;2023-07-09T04:06:21;99404.91;;;25.26
76541;BMP280;65385;55.772;37.658;2023-07-09T04:07:21;99403.41;;;25.32
76541;BMP280;65385;55.772;37.658;2023-07-09T04:08:23;99409.97;;;25.42
76541;BMP280;65385;55.772;37.658;2023-07-09T04:09:25;99405.09;;;25.58
76541;BMP280;65385;55.772;37.658;2023-07-09T04:10:26;99408.97;;;25.67
76541;BMP280;65385;55.772;37.658;2023-07-09T04:11:26;99406.47;;;25.92
76541;BMP280;65385;55.772;37.658;2023-07-09T04:12:27;99409.22;;;26.17
76541;BMP280;65385;55.772;37.658;2023-07-09T04:13:28;99408.91;;;26.22
76541;BMP280;65385;55.772;37.658;2023-07-09T04:14:29;99408.53;;;26.34
76541;BMP280;65385;55.772;37.658;2023-07-09T04:15:29;99408.94;;;26.43
76541;BMP280;65385;55.772;37.658;2023-07-09T04:16:30;99407.84;;;26.54
76541;BMP280;65385;55.772;37.658;2023-07-09T04:17:31;99405.56;;;26.78
76541;BMP280;65385;55.772;37.658;2023-07-09T04:18:32;99414.41;;;26.92
76541;BMP280;65385;55.772;37.658;2023-07-09T04:19:32;99411.72;;;27.13
76541;BMP280;65385;55.772;37.658;2023-07-09T04:20:33;99406.31;;;27.41
76541;BMP280;65385;55.772;37.658;2023-07-09T04:21:35;99406.66;;;27.65
76541;BMP280;65385;55.772;37.658;2023-07-09T04:22:36;99410.41;;;27.92
76541;BMP280;65385;55.772;37.658;2023-07-09T04:23:37;99402.25;;;28.06
76541;BMP280;65385;55.772;37.658;2023-07-09T04:24:38;99398.31;;;28.21
76541;BMP280;65385;55.772;37.658;2023-07-09T04:25:39;99399.13;;;28.14
76541;BMP280;65385;55.772;37.658;2023-07-09T04:26:39;99396.75;;;28.27
76541;BMP280;65385;55.772;37.658;2023-07-09T04:27:41;99399.00;;;28.36
76541;BMP280;65385;55.772;37.658;2023-07-09T04:28:42;99408.19;;;28.45
76541;BMP280;65385;55.772;37.658;2023-07-09T04:29:42;99406.28;;;28.46
76541;BMP280;65385;55.772;37.658;2023-07-09T04:30:50;99396.94;;;28.57
76541;BMP280;65385;55.772;37.658;2023-07-09T04:31:51;99398.81;;;28.64
76541;BMP280;65385;55.772;37.658;2023-07-09T04:32:52;99404.34;;;28.46
76541;BMP280;65385;55.772;37.658;2023-07-09T04:33:52;99401.97;;;28.55
76541;BMP280;65385;55.772;37.658;2023-07-09T04:34:53;99397.63;;;28.68
76541;BMP280;65385;55.772;37.658;2023-07-09T04:35:54;99401.56;;;28.60
76541;BMP280;65385;55.772;37.658;2023-07-09T04:36:54;99384.97;;;28.65
76541;BMP280;65385;55.772;37.658;2023-07-09T04:37:55;99389.59;;;28.65
76541;BMP280;65385;55.772;37.658;2023-07-09T04:38:55;99396.00;;;28.81
76541;BMP280;65385;55.772;37.658;2023-07-09T04:39:56;99389.66;;;29.02
76541;BMP280;65385;55.772;37.658;2023-07-09T04:40:57;99394.53;;;29.18
76541;BMP280;65385;55.772;37.658;2023-07-09T04:41:57;99386.59;;;29.41
76541;BMP280;65385;55.772;37.658;2023-07-09T04:42:58;99383.72;;;29.55
76541;BMP280;65385;55.772;37.658;2023-07-09T04:43:58;99388.28;;;29.61
76541;BMP280;65385;55.772;37.658;2023-07-09T04:44:59;99390.41;;;29.73
76541;BMP280;65385;55.772;37.658;2023-07-09T04:45:59;99394.88;;;29.87
76541;BMP280;65385;55.772;37.658;2023-07-09T04:47:00;99395.06;;;30.03
76541;BMP280;65385;55.772;37.658;2023-07-09T04:48:01;99389.34;;;29.98
76541;BMP280;65385;55.772;37.658;2023-07-09T04:49:03;99397.94;;;29.89
76541;BMP280;65385;55.772;37.658;2023-07-09T04:50:05;99392.44;;;29.66
76541;BMP280;65385;55.772;37.658;2023-07-09T04:51:06;99384.28;;;29.36
76541;BMP280;65385;55.772;37.658;2023-07-09T04:52:07;99392.84;;;29.31
76541;BMP280;65385;55.772;37.658;2023-07-09T04:53:12;99381.88;;;29.48
76541;BMP280;65385;55.772;37.658;2023-07-09T04:54:12;99380.09;;;29.65
76541;BMP280;65385;55.772;37.658;2023-07-09T04:55:15;99389.88;;;29.85
76541;BMP280;65385;55.772;37.658;2023-07-09T04:56:19;99382.53;;;29.86
76541;BMP280;65385;55.772;37.658;2023-07-09T04:57:19;99382.47;;;29.93
76541;BMP280;65385;55.772;37.658;2023-07-09T04:58:20;99372.81;;;29.92
76541;BMP280;65385;55.772;37.658;2023-07-09T04:59:21;99379.31;;;29.98
76541;BMP280;65385;55.772;37.658;2023-07-09T05:00:21;99380.19;;;30.18
76541;BMP280;65385;55.772;37.658;2023-07-09T05:01:22;99376.00;;;30.40
76541;BMP280;65385;55.772;37.658;2023-07-09T05:02:23;99383.88;;;30.54
76541;BMP280;65385;55.772;37.658;2023-07-09T05:03:24;99372.09;;;30.64
76541;BMP280;65385;55.772;37.658;2023-07-09T05:04:25;99374.41;;;30.66
76541;BMP280;65385;55.772;37.658;2023-07-09T05:05:25;99373.19;;;30.71
76541;BMP280;65385;55.772;37.658;2023-07-09T05:06:26;99377.72;;;30.77
76541;BMP280;65385;55.772;37.658;2023-07-09T05:07:27;99376.94;;;30.77
76541;BMP280;65385;55.772;37.658;2023-07-09T05:08:27;99374.22;;;30.77
76541;BMP280;65385;55.772;37.658;2023-07-09T05:09:28;99373.41;;;30.80
76541;BMP280;65385;55.772;37.658;2023-07-09T05:10:28;99376.97;;;30.73
76541;BMP280;65385;55.772;37.658;2023-07-09T05:11:30;99376.00;;;30.63
76541;BMP280;65385;55.772;37.658;2023-07-09T05:12:31;99382.06;;;30.71
76541;BMP280;65385;55.772;37.658;2023-07-09T05:13:32;99378.53;;;30.74
76541;BMP280;65385;55.772;37.658;2023-07-09T05:14:32;99372.84;;;30.68
76541;BMP280;65385;55.772;37.658;2023-07-09T05:15:33;99372.59;;;30.59
76541;BMP280;65385;55.772;37.658;2023-07-09T05:16:33;99374.66;;;30.52
76541;BMP280;65385;55.772;37.658;2023-07-09T05:17:34;99371.50;;;30.30
76541;BMP280;65385;55.772;37.658;2023-07-09T05:18:35;99364.13;;;30.34
76541;BMP280;65385;55.772;37.658;2023-07-09T05:19:35;99360.50;;;30.18
76541;BMP280;65385;55.772;37.658;2023-07-09T05:20:36;99369.22;;;30.29
76541;BMP280;65385;55.772;37.658;2023-07-09T05:21:37;99371.91;;;30.29
76541;BMP280;65385;55.772;37.658;2023-07-09T05:22:37;99377.72;;;30.50
76541;BMP280;65385;55.772;37.658;2023-07-09T05:23:38;99372.44;;;30.66
76541;BMP280;65385;55.772;37.658;2023-07-09T05:24:38;99371.47;;;30.80
76541;BMP280;65385;55.772;37.658;2023-07-09T05:25:39;99366.84;;;31.00
76541;BMP280;65385;55.772;37.658;2023-07-09T05:26:39;99369.22;;;31.18
76541;BMP280;65385;55.772;37.658;2023-07-09T05:27:40;99370.13;;;31.31
76541;BMP280;65385;55.772;37.658;2023-07-09T05:28:40;99365.25;;;31.62
76541;BMP280;65385;55.772;37.658;2023-07-09T05:29:41;99371.47;;;31.94
76541;BMP280;65385;55.772;37.658;2023-07-09T05:30:42;99373.69;;;31.99
76541;BMP280;65385;55.772;37.658;2023-07-09T05:31:43;99362.59;;;32.26
76541;BMP280;65385;55.772;37.658;2023-07-09T05:32:43;99367.41;;;32.34
76541;BMP280;65385;55.772;37.658;2023-07-09T05:33:45;99360.31;;;32.40
76541;BMP280;65385;55.772;37.658;2023-07-09T05:34:45;99355.81;;;32.34
76541;BMP280;65385;55.772;37.658;2023-07-09T05:35:47;99365.19;;;32.62
76541;BMP280;65385;55.772;37.658;2023-07-09T05:36:47;99365.84;;;32.66
76541;BMP280;65385;55.772;37.658;2023-07-09T05:37:48;99367.53;;;32.76
76541;BMP280;65385;55.772;37.658;2023-07-09T05:38:49;99370.03;;;32.83
76541;BMP280;65385;55.772;37.658;2023-07-09T05:39:50;99358.88;;;32.52
76541;BMP280;65385;55.772;37.658;2023-07-09T05:41:03;99370.78;;;31.90
76541;BMP280;65385;55.772;37.658;2023-07-09T05:42:05;99368.84;;;31.55
76541;BMP280;65385;55.772;37.658;2023-07-09T05:43:05;99358.53;;;31.11
76541;BMP280;65385;55.772;37.658;2023-07-09T05:44:06;99356.09;;;30.97
76541;BMP280;65385;55.772;37.658;2023-07-09T05:45:07;99357.91;;;30.60
76541;BMP280;65385;55.772;37.658;2023-07-09T05:46:08;99374.22;;;30.53
76541;BMP280;65385;55.772;37.658;2023-07-09T05:47:08;99374.44;;;30.39
76541;BMP280;65385;55.772;37.658;2023-07-09T05:48:09;99369.19;;;30.32
76541;BMP280;65385;55.772;37.658;2023-07-09T05:49:10;99366.91;;;30.27
76541;BMP280;65385;55.772;37.658;2023-07-09T05:50:10;99365.50;;;30.19
76541;BMP280;65385;55.772;37.658;2023-07-09T05:51:11;99365.66;;;30.09
76541;BMP280;65385;55.772;37.658;2023-07-09T05:52:12;99365.81;;;29.98
76541;BMP280;65385;55.772;37.658;2023-07-09T05:53:12;99362.09;;;29.89